Time;durP1;ratioP1;P1;durP2;ratioP2;P2;SDS_P1;SDS_P2;PMS_P1;PMS_P2;Temp;Humidity;BMP_temperature;BMP_pressure;BME280_temperature;BME280_humidity;BME280_pressure;Samples;Min_cycle;Max_cycle;Signal;HPM_P1;HPM_P2
2022/07/24 00:01:33;;;;;;;7.57;4.80;;;19.50;99.90;;;;;;5031690;28;20259;-82
2022/07/24 00:03:59;;;;;;;8.82;5.05;;;19.50;99.90;;;;;;5015017;28;20232;-82
2022/07/24 00:06:25;;;;;;;9.05;5.28;;;19.40;99.90;;;;;;5031121;28;20204;-82
2022/07/24 00:08:50;;;;;;;13.60;5.03;;;19.40;99.90;;;;;;5014883;28;20176;-82
2022/07/24 00:11:16;;;;;;;7.93;4.10;;;19.40;99.90;;;;;;5031149;28;20183;-83
2022/07/24 00:13:42;;;;;;;9.63;6.28;;;19.40;99.90;;;;;;5035828;28;20634;-82
2022/07/24 00:16:08;;;;;;;8.25;5.13;;;19.40;99.90;;;;;;5018199;28;20270;-83
2022/07/24 00:18:33;;;;;;;8.20;4.78;;;19.40;99.90;;;;;;5036201;28;20181;-82
2022/07/24 00:20:59;;;;;;;9.60;5.45;;;19.40;99.90;;;;;;5018119;28;20188;-82
2022/07/24 00:23:25;;;;;;;11.75;5.00;;;19.40;99.90;;;;;;5017910;28;20323;-82
2022/07/24 00:25:52;;;;;;;8.20;4.75;;;19.40;99.90;;;;;;5034709;28;20191;-82
2022/07/24 00:28:18;;;;;;;5.90;4.30;;;19.40;99.90;;;;;;5035667;28;20208;-82
2022/07/24 00:30:44;;;;;;;6.63;4.82;;;19.40;99.90;;;;;;5017725;28;20701;-81
2022/07/24 00:33:09;;;;;;;9.63;4.63;;;19.40;99.90;;;;;;5007192;28;20216;-82
2022/07/24 00:35:35;;;;;;;8.93;5.50;;;19.30;99.90;;;;;;5034688;28;20209;-82
2022/07/24 00:38:02;;;;;;;9.10;5.38;;;19.30;99.90;;;;;;5035904;28;20177;-83
2022/07/24 00:40:28;;;;;;;10.73;5.18;;;19.30;99.90;;;;;;5035413;28;20176;-83
2022/07/24 00:42:53;;;;;;;7.00;4.47;;;19.30;99.90;;;;;;5035709;28;20231;-82
2022/07/24 00:45:19;;;;;;;7.50;5.57;;;19.30;99.90;;;;;;5017425;28;20185;-82
2022/07/24 00:47:45;;;;;;;8.80;4.85;;;19.20;99.90;;;;;;5034683;28;20180;-82
2022/07/24 00:50:11;;;;;;;6.10;4.30;;;19.20;99.90;;;;;;5035449;28;20181;-82
2022/07/24 00:52:38;;;;;;;7.80;5.22;;;19.20;99.90;;;;;;5017936;28;20523;-83
2022/07/24 00:55:04;;;;;;;9.07;5.18;;;19.20;99.90;;;;;;5001279;28;20572;-83
2022/07/24 00:57:30;;;;;;;7.90;4.95;;;19.20;99.90;;;;;;5033869;28;20180;-82
2022/07/24 00:59:57;;;;;;;7.22;4.78;;;19.20;99.90;;;;;;5017828;28;20183;-84
2022/07/24 01:02:22;;;;;;;7.57;4.30;;;19.10;99.90;;;;;;5034723;28;20173;-84
2022/07/24 01:04:49;;;;;;;6.28;4.47;;;19.10;99.90;;;;;;5001398;28;20180;-82
2022/07/24 01:07:15;;;;;;;5.82;4.18;;;19.10;99.90;;;;;;5017550;28;20274;-83
2022/07/24 01:09:41;;;;;;;6.90;5.00;;;19.10;99.90;;;;;;5035184;28;20630;-83
2022/07/24 01:12:07;;;;;;;7.05;4.68;;;19.10;99.90;;;;;;5017436;28;20181;-83
2022/07/24 01:14:33;;;;;;;7.00;4.35;;;19.10;99.90;;;;;;5033387;28;20672;-83
2022/07/24 01:16:59;;;;;;;7.47;4.68;;;19.10;99.90;;;;;;5034772;28;20188;-83
2022/07/24 01:19:24;;;;;;;11.02;4.60;;;19.00;99.90;;;;;;5033472;28;20180;-83
2022/07/24 01:21:52;;;;;;;7.75;5.00;;;19.10;99.90;;;;;;5034719;28;20637;-83
2022/07/24 01:24:19;;;;;;;10.25;5.35;;;19.00;99.90;;;;;;5034251;28;20600;-84
2022/07/24 01:26:46;;;;;;;8.75;5.45;;;19.00;99.90;;;;;;5034971;28;20177;-83
2022/07/24 01:29:12;;;;;;;7.57;5.10;;;19.00;99.90;;;;;;5033025;28;20189;-85
2022/07/24 01:31:37;;;;;;;7.13;4.78;;;19.00;99.90;;;;;;5034985;28;20228;-83
2022/07/24 01:34:04;;;;;;;7.15;4.68;;;19.00;99.90;;;;;;5017309;28;20177;-83
2022/07/24 01:36:29;;;;;;;11.23;5.20;;;19.00;99.90;;;;;;5034276;28;20626;-84
2022/07/24 01:38:55;;;;;;;7.85;4.72;;;19.00;99.90;;;;;;5034391;28;20180;-84
2022/07/24 01:41:22;;;;;;;10.95;5.03;;;18.90;99.90;;;;;;5016794;28;20232;-83
2022/07/24 01:43:47;;;;;;;7.90;5.00;;;18.90;99.90;;;;;;5034343;28;20239;-84
2022/07/24 01:46:13;;;;;;;7.40;4.47;;;18.90;99.90;;;;;;5034246;28;20636;-87
2022/07/24 01:48:41;;;;;;;9.32;5.72;;;18.90;99.90;;;;;;5016728;28;20230;-83
2022/07/24 01:51:06;;;;;;;10.00;5.68;;;18.90;99.90;;;;;;5034727;28;20173;-83
2022/07/24 01:53:32;;;;;;;6.90;5.22;;;18.90;99.90;;;;;;5016274;28;20625;-84
2022/07/24 01:55:58;;;;;;;8.32;5.60;;;18.90;99.90;;;;;;5033995;28;20223;-83
2022/07/24 01:58:23;;;;;;;11.90;5.90;;;18.90;99.90;;;;;;5034078;28;20626;-84
2022/07/24 02:00:49;;;;;;;6.93;5.00;;;18.90;99.90;;;;;;5033898;28;20189;-83
2022/07/24 02:03:15;;;;;;;13.68;6.05;;;18.90;99.90;;;;;;5032524;28;20173;-88
2022/07/24 02:05:41;;;;;;;11.00;6.20;;;18.90;99.90;;;;;;5034126;28;20184;-83
2022/07/24 02:08:06;;;;;;;10.95;5.93;;;18.90;99.90;;;;;;4999981;28;20181;-84
2022/07/24 02:10:33;;;;;;;9.15;5.97;;;18.90;99.90;;;;;;5032532;28;20211;-83
2022/07/24 02:12:58;;;;;;;9.45;5.30;;;18.90;99.90;;;;;;5033968;28;20176;-83
2022/07/24 02:15:24;;;;;;;10.50;6.72;;;18.90;99.90;;;;;;5033694;28;20216;-84
2022/07/24 02:17:52;;;;;;;11.65;6.22;;;18.90;99.90;;;;;;5033966;28;20168;-83
2022/07/24 02:20:18;;;;;;;8.85;5.80;;;18.90;99.90;;;;;;5033904;28;20641;-89
2022/07/24 02:22:44;;;;;;;9.82;6.32;;;18.90;99.90;;;;;;5032864;28;20269;-84
2022/07/24 02:25:11;;;;;;;12.05;6.55;;;18.90;99.90;;;;;;5016150;28;20282;-84
2022/07/24 02:27:37;;;;;;;10.43;6.55;;;18.90;99.90;;;;;;5033532;28;20251;-83
2022/07/24 02:30:12;;;;;;;8.85;6.10;;;18.90;99.90;;;;;;5015810;28;20626;-84
2022/07/24 02:32:38;;;;;;;12.00;6.80;;;18.90;99.90;;;;;;5015872;28;20176;-83
2022/07/24 02:35:04;;;;;;;8.98;6.05;;;18.90;99.90;;;;;;5032863;28;20216;-83
2022/07/24 02:37:30;;;;;;;9.77;6.40;;;18.90;99.90;;;;;;5033771;28;20175;-84
2022/07/24 02:39:55;;;;;;;11.02;6.32;;;18.90;99.90;;;;;;5033642;28;20615;-83
2022/07/24 02:42:21;;;;;;;11.85;6.72;;;18.90;99.90;;;;;;5033387;28;20280;-87
2022/07/24 02:44:46;;;;;;;10.90;7.13;;;18.90;99.90;;;;;;5015636;28;20192;-83
2022/07/24 02:47:12;;;;;;;12.80;6.90;;;18.80;99.90;;;;;;5033414;28;20180;-83
2022/07/24 02:49:37;;;;;;;9.35;5.57;;;18.90;99.90;;;;;;5031995;28;20187;-83
2022/07/24 02:52:03;;;;;;;13.10;6.85;;;18.80;99.90;;;;;;5033524;28;20195;-83
2022/07/24 02:54:29;;;;;;;10.00;6.43;;;18.80;99.90;;;;;;5015566;28;20212;-83
2022/07/24 02:56:54;;;;;;;11.95;6.85;;;18.90;99.90;;;;;;5015982;28;20215;-83
2022/07/24 02:59:20;;;;;;;10.27;6.90;;;18.80;99.90;;;;;;5015762;28;20180;-83
2022/07/24 03:01:46;;;;;;;12.02;6.82;;;18.80;99.90;;;;;;5033674;28;20198;-83
2022/07/24 03:04:11;;;;;;;8.73;6.10;;;18.90;99.90;;;;;;5016350;28;20564;-83
2022/07/24 03:06:37;;;;;;;14.02;6.97;;;18.80;99.90;;;;;;5015826;28;20218;-83
2022/07/24 03:09:03;;;;;;;12.18;5.95;;;18.80;99.90;;;;;;5033196;28;20219;-83
2022/07/24 03:11:29;;;;;;;11.27;6.93;;;18.90;99.90;;;;;;5032691;28;20215;-84
2022/07/24 03:13:54;;;;;;;9.45;6.07;;;18.80;99.90;;;;;;5033217;28;20657;-83
2022/07/24 03:16:20;;;;;;;9.18;6.22;;;18.80;99.90;;;;;;5033494;28;20177;-83
2022/07/24 03:18:48;;;;;;;10.82;6.50;;;18.80;99.90;;;;;;5034193;28;20189;-83
2022/07/24 03:21:14;;;;;;;13.52;7.20;;;18.80;99.90;;;;;;5035587;28;20319;-83
2022/07/24 03:23:40;;;;;;;11.85;6.15;;;18.80;99.90;;;;;;5032382;28;20318;-83
2022/07/24 03:26:06;;;;;;;14.70;7.43;;;18.80;99.90;;;;;;5015694;28;20267;-83
2022/07/24 03:28:31;;;;;;;11.95;7.18;;;18.80;99.90;;;;;;5033073;28;20196;-83
2022/07/24 03:30:57;;;;;;;9.13;5.95;;;18.80;99.90;;;;;;5033410;28;20815;-83
2022/07/24 03:33:23;;;;;;;11.05;6.63;;;18.80;99.90;;;;;;5016112;28;20192;-83
2022/07/24 03:35:48;;;;;;;12.02;7.57;;;18.80;99.90;;;;;;5032694;28;20211;-83
2022/07/24 03:38:14;;;;;;;11.15;7.03;;;18.80;99.90;;;;;;5032923;28;20546;-83
2022/07/24 03:40:40;;;;;;;15.18;8.13;;;18.80;99.90;;;;;;5032594;28;20260;-83
2022/07/24 03:43:05;;;;;;;13.00;7.10;;;18.80;99.90;;;;;;5033199;28;20180;-83
2022/07/24 03:45:31;;;;;;;18.13;7.65;;;18.80;99.90;;;;;;5032427;28;20633;-83
2022/07/24 03:47:56;;;;;;;12.07;7.60;;;18.70;99.90;;;;;;5036791;28;20177;-83
2022/07/24 03:50:22;;;;;;;13.13;8.15;;;18.70;99.90;;;;;;5037021;28;20176;-83
2022/07/24 03:52:48;;;;;;;9.27;6.18;;;18.70;99.90;;;;;;5035358;28;20196;-83
2022/07/24 03:55:13;;;;;;;9.15;5.95;;;18.80;99.90;;;;;;5035208;28;20287;-83
2022/07/24 03:57:39;;;;;;;10.95;6.55;;;18.70;99.90;;;;;;5036031;28;20231;-82
2022/07/24 04:00:07;;;;;;;12.20;6.90;;;18.70;99.90;;;;;;5035892;28;20188;-83
2022/07/24 04:02:32;;;;;;;11.05;6.40;;;18.70;99.90;;;;;;5030620;28;20192;-83
2022/07/24 04:04:58;;;;;;;12.07;7.25;;;18.70;99.90;;;;;;5017795;28;20180;-84
2022/07/24 04:07:23;;;;;;;9.15;6.35;;;18.80;99.90;;;;;;5035123;28;20191;-82
2022/07/24 04:09:49;;;;;;;14.02;7.35;;;18.80;99.90;;;;;;5034410;28;20184;-82
2022/07/24 04:12:14;;;;;;;12.95;7.20;;;18.80;99.90;;;;;;5002385;28;20243;-82
2022/07/24 04:14:40;;;;;;;11.32;7.43;;;18.90;99.90;;;;;;5018151;28;20223;-82
2022/07/24 04:17:06;;;;;;;12.18;7.70;;;18.90;99.90;;;;;;5034806;28;20310;-82
2022/07/24 04:19:32;;;;;;;8.82;6.55;;;18.90;99.90;;;;;;5017574;28;20198;-83
2022/07/24 04:21:57;;;;;;;11.82;7.10;;;18.90;99.90;;;;;;5034788;28;20178;-83
2022/07/24 04:24:23;;;;;;;12.45;7.60;;;19.00;99.90;;;;;;5040003;28;20190;-83
2022/07/24 04:26:49;;;;;;;11.10;7.28;;;19.00;99.90;;;;;;5043493;28;20259;-82
2022/07/24 04:29:15;;;;;;;13.38;8.02;;;19.00;99.90;;;;;;5042044;28;20192;-82
2022/07/24 04:31:40;;;;;;;13.23;8.38;;;19.00;99.90;;;;;;5040735;28;20236;-82
2022/07/24 04:34:06;;;;;;;13.23;7.45;;;19.10;99.90;;;;;;5040547;28;20173;-82
2022/07/24 04:36:32;;;;;;;11.60;7.43;;;19.10;99.90;;;;;;5037087;28;20511;-81
2022/07/24 04:38:57;;;;;;;13.57;7.75;;;19.30;99.90;;;;;;5035587;28;20196;-83
2022/07/24 04:41:23;;;;;;;16.88;9.20;;;19.40;99.90;;;;;;5018004;28;20690;-82
2022/07/24 04:43:49;;;;;;;12.27;6.80;;;19.40;99.90;;;;;;5036120;28;20173;-82
2022/07/24 04:46:16;;;;;;;12.85;7.82;;;19.40;99.90;;;;;;5035601;28;20609;-82
2022/07/24 04:48:41;;;;;;;12.65;7.78;;;19.50;99.90;;;;;;5035892;28;20227;-83
2022/07/24 04:51:07;;;;;;;11.25;7.10;;;19.50;99.90;;;;;;5035822;28;20540;-82
2022/07/24 04:53:33;;;;;;;15.93;8.35;;;19.50;99.90;;;;;;5035374;28;20212;-82
2022/07/24 04:55:59;;;;;;;15.02;7.97;;;19.40;99.90;;;;;;5035237;28;20212;-82
2022/07/24 04:58:26;;;;;;;15.68;8.45;;;19.40;99.90;;;;;;5034625;28;20180;-82
2022/07/24 05:00:52;;;;;;;12.90;8.20;;;19.50;99.90;;;;;;5035676;28;20195;-81
2022/07/24 05:03:18;;;;;;;13.15;8.75;;;19.50;99.90;;;;;;5017520;28;20168;-81
2022/07/24 05:05:43;;;;;;;14.57;9.10;;;19.50;99.90;;;;;;5034787;28;20176;-81
2022/07/24 05:08:09;;;;;;;14.35;8.15;;;19.50;99.90;;;;;;5016980;28;20181;-81
2022/07/24 05:10:35;;;;;;;10.77;7.38;;;19.40;99.90;;;;;;5034269;28;20215;-83
2022/07/24 05:13:00;;;;;;;13.05;8.07;;;19.50;99.90;;;;;;5034870;28;20185;-82
2022/07/24 05:15:26;;;;;;;15.30;8.60;;;19.50;99.90;;;;;;5017221;28;20208;-82
2022/07/24 05:17:51;;;;;;;16.02;8.98;;;19.50;99.90;;;;;;5016864;28;20256;-81
2022/07/24 05:20:17;;;;;;;16.40;7.90;;;19.50;99.90;;;;;;5035016;28;20184;-82
2022/07/24 05:22:42;;;;;;;14.38;8.38;;;19.50;99.90;;;;;;5034630;28;20172;-81
2022/07/24 05:25:08;;;;;;;14.52;8.30;;;19.50;99.90;;;;;;5034579;28;20184;-80
2022/07/24 05:27:34;;;;;;;15.93;8.15;;;19.50;99.90;;;;;;5034485;28;20177;-81
2022/07/24 05:30:00;;;;;;;13.35;7.55;;;19.50;99.90;;;;;;5034061;28;20189;-80
2022/07/24 05:32:25;;;;;;;12.88;7.85;;;19.60;99.90;;;;;;5034622;28;20236;-81
2022/07/24 05:34:51;;;;;;;12.40;8.32;;;19.60;99.90;;;;;;5034415;28;20216;-81
2022/07/24 05:37:16;;;;;;;10.65;7.25;;;19.70;99.90;;;;;;5016773;28;20641;-81
2022/07/24 05:39:42;;;;;;;14.45;8.60;;;19.70;99.90;;;;;;5034512;28;20179;-81
2022/07/24 05:42:08;;;;;;;14.20;8.45;;;19.70;99.90;;;;;;5034507;28;20221;-81
2022/07/24 05:44:33;;;;;;;15.02;8.70;;;19.70;99.90;;;;;;5000673;28;20579;-82
2022/07/24 05:46:59;;;;;;;14.68;8.40;;;19.70;99.90;;;;;;5032459;28;20187;-83
2022/07/24 05:49:24;;;;;;;12.00;7.32;;;19.70;99.90;;;;;;5000031;28;20188;-85
2022/07/24 05:51:50;;;;;;;9.98;6.30;;;19.70;99.90;;;;;;5033863;28;20658;-83
2022/07/24 05:54:16;;;;;;;15.88;7.95;;;19.70;99.90;;;;;;5034032;28;20188;-82
2022/07/24 05:56:42;;;;;;;13.30;7.60;;;19.70;99.90;;;;;;5032554;28;20256;-82
2022/07/24 05:59:07;;;;;;;9.60;6.68;;;19.60;99.90;;;;;;5033658;28;20180;-79
2022/07/24 06:01:33;;;;;;;8.88;4.88;;;19.70;99.90;;;;;;5035558;28;20181;-82
2022/07/24 06:03:59;;;;;;;8.00;4.97;;;19.50;99.90;;;;;;5015735;28;20181;-83
2022/07/24 06:06:24;;;;;;;9.75;4.10;;;19.50;99.90;;;;;;5015740;28;20181;-81
2022/07/24 06:08:50;;;;;;;5.97;3.65;;;19.50;99.90;;;;;;5031809;28;20227;-81
2022/07/24 06:11:17;;;;;;;4.68;3.45;;;19.50;99.90;;;;;;5032172;28;20190;-82
2022/07/24 06:13:43;;;;;;;3.85;2.60;;;19.50;99.90;;;;;;5016404;28;20187;-81
2022/07/24 06:16:09;;;;;;;4.72;3.20;;;19.50;99.90;;;;;;5015233;28;20619;-81
2022/07/24 06:18:35;;;;;;;3.40;2.67;;;19.50;99.90;;;;;;5033871;28;20223;-81
2022/07/24 06:21:00;;;;;;;3.60;2.13;;;19.50;99.90;;;;;;5032267;28;20271;-82
2022/07/24 06:23:26;;;;;;;2.97;1.92;;;19.50;99.90;;;;;;5033082;28;20358;-81
2022/07/24 06:25:52;;;;;;;2.80;2.00;;;19.40;99.90;;;;;;5032574;28;20593;-82
2022/07/24 06:28:20;;;;;;;3.33;1.90;;;19.40;99.90;;;;;;5034031;28;20180;-81
2022/07/24 06:30:46;;;;;;;1.55;1.42;;;19.50;99.90;;;;;;5016209;28;20262;-81
2022/07/24 06:33:11;;;;;;;2.33;1.42;;;19.60;99.90;;;;;;5032388;28;20681;-81
2022/07/24 06:35:37;;;;;;;3.45;1.30;;;19.70;99.90;;;;;;5015953;28;20216;-81
2022/07/24 06:38:03;;;;;;;2.28;1.67;;;19.70;99.90;;;;;;5033205;28;20207;-82
2022/07/24 06:40:28;;;;;;;2.15;1.58;;;19.70;99.90;;;;;;5015702;28;20185;-81
2022/07/24 06:42:54;;;;;;;2.83;1.83;;;19.80;99.90;;;;;;5033693;28;20319;-83
2022/07/24 06:45:20;;;;;;;2.08;1.45;;;19.70;99.90;;;;;;5033276;28;20200;-81
2022/07/24 06:47:46;;;;;;;2.17;1.50;;;19.60;99.90;;;;;;5033347;28;20230;-83
2022/07/24 06:50:13;;;;;;;2.60;1.58;;;19.60;99.90;;;;;;5015533;28;20190;-83
2022/07/24 06:52:39;;;;;;;1.45;1.25;;;19.70;99.90;;;;;;5033535;28;20187;-83
2022/07/24 06:55:05;;;;;;;3.42;1.27;;;19.80;99.90;;;;;;5015291;28;20609;-83
2022/07/24 06:57:32;;;;;;;2.08;1.20;;;20.00;99.90;;;;;;5031622;28;20585;-81
2022/07/24 06:59:58;;;;;;;2.38;1.58;;;20.30;99.90;;;;;;5032535;28;20181;-82
2022/07/24 07:02:23;;;;;;;2.63;1.63;;;20.50;99.90;;;;;;5015304;28;20230;-81
2022/07/24 07:04:49;;;;;;;1.48;1.27;;;20.50;99.90;;;;;;5032048;28;20188;-81
2022/07/24 07:07:16;;;;;;;2.50;1.70;;;20.50;99.90;;;;;;5032796;28;20629;-81
2022/07/24 07:09:42;;;;;;;1.45;1.25;;;20.50;99.90;;;;;;5033143;28;20557;-81
2022/07/24 07:12:08;;;;;;;5.03;1.10;;;20.40;99.90;;;;;;5014897;28;20187;-81
2022/07/24 07:14:33;;;;;;;1.02;0.70;;;20.50;99.90;;;;;;5031243;28;20208;-81
2022/07/24 07:16:59;;;;;;;1.63;1.35;;;20.50;99.90;;;;;;5015073;28;20180;-80
2022/07/24 07:19:25;;;;;;;1.70;1.00;;;20.60;99.90;;;;;;5033011;28;20275;-80
2022/07/24 07:21:50;;;;;;;6.18;1.58;;;20.60;99.90;;;;;;5035830;28;20182;-81
2022/07/24 07:24:16;;;;;;;1.45;0.90;;;20.70;99.90;;;;;;5021450;28;20183;-82
2022/07/24 07:26:42;;;;;;;1.08;1.02;;;20.80;99.90;;;;;;5038523;28;20609;-81
2022/07/24 07:29:07;;;;;;;0.85;0.85;;;21.00;99.90;;;;;;5038838;28;20263;-82
2022/07/24 07:31:33;;;;;;;2.30;1.00;;;21.10;99.90;;;;;;5021679;28;20282;-81
2022/07/24 07:33:59;;;;;;;1.38;1.05;;;21.20;99.90;;;;;;5038127;28;20199;-82
2022/07/24 07:36:26;;;;;;;1.63;1.13;;;21.40;99.90;;;;;;5039226;28;20266;-81
2022/07/24 07:38:51;;;;;;;1.88;1.13;;;21.50;99.90;;;;;;5038860;28;20176;-81
2022/07/24 07:41:19;;;;;;;3.30;1.25;;;21.50;99.90;;;;;;5039345;28;20622;-81
2022/07/24 07:43:47;;;;;;;1.08;0.90;;;21.70;99.90;;;;;;5038384;28;20721;-80
2022/07/24 07:46:13;;;;;;;1.63;1.10;;;21.80;99.90;;;;;;5039287;28;20234;-81
2022/07/24 07:48:39;;;;;;;1.23;1.10;;;21.70;99.90;;;;;;5039548;28;20283;-81
2022/07/24 07:51:04;;;;;;;1.77;1.10;;;21.80;99.90;;;;;;5005490;28;20196;-81
2022/07/24 07:53:30;;;;;;;1.13;0.82;;;21.80;99.90;;;;;;5038611;28;20275;-80
2022/07/24 07:55:56;;;;;;;1.00;0.85;;;21.90;99.90;;;;;;5039377;28;20251;-81
2022/07/24 07:58:26;;;;;;;1.17;0.90;;;22.10;99.90;;;;;;5021585;28;20518;-81
2022/07/24 08:00:51;;;;;;;0.70;0.70;;;21.90;99.90;;;;;;5022472;28;20176;-80
2022/07/24 08:03:17;;;;;;;5.68;1.00;;;21.70;99.90;;;;;;5021986;28;20231;-80
2022/07/24 08:05:43;;;;;;;1.92;0.73;;;21.40;99.90;;;;;;5022188;28;20550;-82
2022/07/24 08:08:08;;;;;;;1.35;1.15;;;21.20;99.90;;;;;;5021277;28;20234;-80
2022/07/24 08:10:34;;;;;;;0.95;0.90;;;21.10;99.90;;;;;;5005348;28;20185;-82
2022/07/24 08:12:59;;;;;;;1.80;0.95;;;21.00;99.90;;;;;;5038993;28;20181;-82
2022/07/24 08:15:25;;;;;;;1.70;0.90;;;21.10;99.90;;;;;;5038765;28;20287;-82
2022/07/24 08:17:55;;;;;;;2.45;0.88;;;21.20;99.90;;;;;;5021675;28;20644;-82
2022/07/24 08:20:21;;;;;;;1.58;1.08;;;21.20;99.90;;;;;;5039074;28;20169;-82
2022/07/24 08:22:47;;;;;;;3.55;1.88;;;21.30;99.90;;;;;;5021208;28;20188;-81
2022/07/24 08:25:13;;;;;;;1.33;0.90;;;21.40;99.90;;;;;;5039482;28;20525;-82
2022/07/24 08:27:38;;;;;;;2.97;1.38;;;21.60;99.90;;;;;;5021285;28;20697;-82
2022/07/24 08:30:08;;;;;;;1.15;0.93;;;21.70;99.90;;;;;;5022542;28;20261;-82
2022/07/24 08:32:34;;;;;;;0.95;0.80;;;21.80;99.90;;;;;;5039033;28;20170;-81
2022/07/24 08:35:00;;;;;;;0.57;0.57;;;21.90;99.90;;;;;;5037889;28;20228;-82
2022/07/24 08:37:25;;;;;;;1.40;0.70;;;21.90;99.90;;;;;;5056115;28;20267;-81
2022/07/24 08:39:51;;;;;;;0.98;0.90;;;21.90;99.90;;;;;;5038230;28;20176;-81
2022/07/24 08:42:17;;;;;;;1.00;0.93;;;21.80;99.90;;;;;;5021440;28;20176;-82
2022/07/24 08:44:42;;;;;;;0.73;0.68;;;21.90;99.90;;;;;;5037732;28;20663;-82
2022/07/24 08:47:08;;;;;;;1.00;0.80;;;22.10;99.90;;;;;;5055340;28;20259;-83
2022/07/24 08:49:37;;;;;;;2.65;1.00;;;22.00;99.90;;;;;;5038275;28;20211;-83
2022/07/24 08:52:08;;;;;;;1.08;0.75;;;22.10;99.90;;;;;;5037866;28;20172;-83
2022/07/24 08:54:35;;;;;;;1.35;1.10;;;22.10;99.90;;;;;;5038026;28;20211;-81
2022/07/24 08:57:01;;;;;;;0.82;0.75;;;22.30;99.90;;;;;;5055788;28;20210;-82
2022/07/24 08:59:27;;;;;;;1.60;0.90;;;22.50;99.90;;;;;;5055160;28;20179;-79
2022/07/24 09:01:53;;;;;;;2.17;0.93;;;22.60;99.90;;;;;;5055384;28;20180;-81
2022/07/24 09:04:36;;;;;;;4.93;1.10;;;22.60;99.90;;;;;;5037256;28;20621;-81
2022/07/24 09:07:23;;;;;;;2.55;1.15;;;22.70;99.90;;;;;;5037673;28;20178;-83
2022/07/24 09:09:59;;;;;;;1.23;0.77;;;22.70;99.90;;;;;;5037878;28;20161;-83
2022/07/24 09:12:25;;;;;;;1.50;0.95;;;22.60;99.90;;;;;;5055100;28;20257;-82
2022/07/24 09:14:50;;;;;;;1.10;0.85;;;22.50;99.90;;;;;;5037279;28;20322;-82
2022/07/24 09:17:19;;;;;;;1.20;1.10;;;22.50;99.90;;;;;;5054690;28;20172;-82
2022/07/24 09:20:00;;;;;;;1.02;0.95;;;22.80;99.90;;;;;;5037197;28;20176;-82
2022/07/24 09:22:34;;;;;;;1.05;0.88;;;22.80;99.90;;;;;;5055116;28;20187;-82
2022/07/24 09:25:16;;;;;;;0.95;0.88;;;22.60;99.90;;;;;;5037398;28;20175;-81
2022/07/24 09:27:54;;;;;;;0.98;0.90;;;22.40;99.90;;;;;;5055186;28;20164;-81
2022/07/24 09:30:25;;;;;;;1.45;1.35;;;22.50;99.90;;;;;;5054603;28;20249;-81
2022/07/24 09:32:59;;;;;;;1.92;1.33;;;22.60;99.90;;;;;;5054924;28;20254;-81
2022/07/24 09:35:46;;;;;;;1.90;1.10;;;22.80;99.90;;;;;;5054668;28;20199;-81
2022/07/24 09:38:14;;;;;;;3.28;1.45;;;23.00;99.90;;;;;;5054371;28;20160;-82
2022/07/24 09:40:45;;;;;;;1.50;1.40;;;22.90;99.90;;;;;;5054632;28;20263;-82
2022/07/24 09:43:14;;;;;;;3.20;2.03;;;23.10;99.90;;;;;;5054644;28;20207;-83
2022/07/24 09:45:56;;;;;;;2.22;1.70;;;23.00;99.90;;;;;;5053957;28;20180;-80
2022/07/24 09:48:24;;;;;;;4.20;1.95;;;23.10;99.90;;;;;;5054251;28;20176;-81
2022/07/24 09:50:54;;;;;;;3.28;1.60;;;23.10;99.90;;;;;;5054376;28;20206;-81
2022/07/24 09:53:24;;;;;;;3.33;1.63;;;23.00;99.90;;;;;;5036369;28;20681;-83
2022/07/24 09:56:04;;;;;;;1.25;1.10;;;22.80;99.90;;;;;;5054613;28;20226;-82
2022/07/24 09:58:35;;;;;;;2.70;1.60;;;22.80;99.90;;;;;;5054215;28;20628;-82
2022/07/24 10:01:01;;;;;;;1.30;1.20;;;22.90;99.90;;;;;;5054289;28;20172;-81
2022/07/24 10:03:29;;;;;;;1.52;1.08;;;22.80;98.00;;;;;;5003509;28;20275;-82
2022/07/24 10:05:58;;;;;;;2.15;1.60;;;22.70;98.30;;;;;;5054065;28;20187;-82
2022/07/24 10:08:25;;;;;;;2.47;1.48;;;22.80;98.90;;;;;;5053924;28;20168;-81
2022/07/24 10:10:51;;;;;;;1.50;1.20;;;23.00;97.10;;;;;;5054166;28;20185;-81
2022/07/24 10:13:17;;;;;;;1.83;1.70;;;23.10;96.60;;;;;;5036580;28;20550;-81
2022/07/24 10:16:29;;;;;;;3.70;1.23;;;23.20;98.70;;;;;;5053582;28;20210;-79
2022/07/24 10:18:57;;;;;;;1.60;1.50;;;23.20;98.60;;;;;;4956877;28;20265;-82
2022/07/24 10:21:34;;;;;;;2.17;1.58;;;23.20;98.10;;;;;;5038526;28;20192;-82
2022/07/24 10:24:03;;;;;;;2.35;1.98;;;23.30;94.10;;;;;;5035733;28;20176;-81
2022/07/24 10:26:35;;;;;;;4.03;1.80;;;23.30;95.80;;;;;;5053661;28;20228;-80
2022/07/24 10:29:10;;;;;;;1.95;1.52;;;23.40;97.60;;;;;;5035986;28;20180;-80
2022/07/24 10:31:43;;;;;;;1.45;1.27;;;23.40;94.80;;;;;;5053571;28;20231;-81
2022/07/24 10:34:37;;;;;;;1.65;1.50;;;23.40;94.90;;;;;;5053740;28;20234;-80
2022/07/24 10:37:08;;;;;;;1.55;1.30;;;23.60;98.10;;;;;;5053800;28;20167;-80
2022/07/24 10:39:46;;;;;;;1.02;0.93;;;23.60;92.60;;;;;;5035484;28;20602;-81
2022/07/24 10:42:12;;;;;;;2.65;1.63;;;23.60;93.20;;;;;;5053099;28;20172;-84
2022/07/24 10:44:38;;;;;;;1.45;1.25;;;23.90;93.20;;;;;;5035483;28;20230;-80
2022/07/24 10:47:04;;;;;;;2.75;1.65;;;24.00;94.60;;;;;;5035787;28;20184;-82
2022/07/24 10:49:43;;;;;;;2.75;1.90;;;24.00;93.20;;;;;;5052877;28;20179;-82
2022/07/24 10:52:30;;;;;;;1.95;1.60;;;24.10;94.40;;;;;;5053437;28;20168;-82
2022/07/24 10:55:28;;;;;;;1.40;1.13;;;24.00;95.50;;;;;;5053271;28;20321;-82
2022/07/24 10:57:55;;;;;;;2.15;1.40;;;23.70;94.40;;;;;;5033321;28;20176;-82
2022/07/24 11:00:29;;;;;;;2.30;1.38;;;23.50;94.50;;;;;;5032439;28;20184;-81
2022/07/24 11:03:06;;;;;;;1.52;1.15;;;23.50;95.10;;;;;;5033704;28;20164;-82
2022/07/24 11:05:36;;;;;;;1.83;1.45;;;23.60;93.90;;;;;;5033537;28;20207;-81
2022/07/24 11:08:18;;;;;;;2.85;1.27;;;23.80;92.20;;;;;;5041887;28;20236;-82
2022/07/24 11:10:54;;;;;;;1.80;1.52;;;23.90;93.60;;;;;;5039414;28;20237;-82
2022/07/24 11:13:32;;;;;;;2.50;1.88;;;24.10;92.60;;;;;;5035529;28;20247;-82
2022/07/24 11:16:10;;;;;;;1.95;1.15;;;24.20;93.10;;;;;;5033185;28;20287;-82
2022/07/24 11:18:36;;;;;;;1.88;1.60;;;24.10;93.50;;;;;;5031564;28;20180;-82
2022/07/24 11:21:03;;;;;;;1.73;1.63;;;24.20;92.60;;;;;;5031921;28;20180;-82
2022/07/24 11:23:28;;;;;;;2.53;2.03;;;24.20;91.00;;;;;;5032575;28;20230;-88
2022/07/24 11:26:31;;;;;;;1.40;1.30;;;24.30;90.40;;;;;;5031969;28;20196;-82
2022/07/24 11:29:17;;;;;;;1.17;1.10;;;24.40;89.70;;;;;;5033042;28;20230;-82
2022/07/24 11:31:47;;;;;;;8.00;2.63;;;24.40;90.50;;;;;;5031319;28;20224;-83
2022/07/24 11:34:13;;;;;;;2.35;1.90;;;24.30;90.70;;;;;;5032934;28;20165;-81
2022/07/24 11:36:45;;;;;;;2.72;1.70;;;24.10;91.40;;;;;;5015224;28;20280;-82
2022/07/24 11:39:11;;;;;;;2.15;1.98;;;24.10;91.60;;;;;;5032823;28;20207;-82
2022/07/24 11:41:54;;;;;;;2.72;1.77;;;24.10;91.00;;;;;;5015166;28;20208;-82
2022/07/24 11:44:30;;;;;;;1.83;1.45;;;24.20;90.50;;;;;;5032967;28;20160;-82
2022/07/24 11:46:57;;;;;;;1.30;1.20;;;24.00;88.40;;;;;;5015151;28;20188;-82
2022/07/24 11:49:24;;;;;;;3.78;2.28;;;24.10;89.80;;;;;;5015750;28;20177;-82
2022/07/24 11:51:52;;;;;;;3.00;1.95;;;24.10;88.00;;;;;;5032889;28;20262;-82
2022/07/24 11:54:26;;;;;;;1.77;1.63;;;24.00;88.70;;;;;;5032450;28;20720;-82
2022/07/24 11:56:54;;;;;;;2.13;1.48;;;24.20;91.20;;;;;;5032709;28;20239;-82
2022/07/24 11:59:29;;;;;;;2.08;1.48;;;24.20;90.60;;;;;;5032826;28;20177;-82
2022/07/24 12:02:05;;;;;;;2.42;1.83;;;24.20;90.40;;;;;;5032265;28;20176;-83
2022/07/24 12:04:31;;;;;;;2.25;1.30;;;24.30;91.10;;;;;;5032673;28;20629;-82
2022/07/24 12:06:57;;;;;;;1.55;1.20;;;24.40;87.60;;;;;;5015679;28;20172;-81
2022/07/24 12:09:23;;;;;;;3.65;1.45;;;24.40;90.00;;;;;;5036471;28;20177;-82
2022/07/24 12:11:49;;;;;;;1.50;1.33;;;24.50;90.00;;;;;;5018508;28;20177;-82
2022/07/24 12:14:17;;;;;;;0.98;0.93;;;24.60;90.60;;;;;;5041574;28;20541;-82
2022/07/24 12:16:44;;;;;;;1.83;1.33;;;24.70;90.20;;;;;;5034978;28;20525;-82
2022/07/24 12:19:18;;;;;;;5.10;1.13;;;24.50;90.50;;;;;;5036346;28;20173;-81
2022/07/24 12:21:45;;;;;;;1.10;1.00;;;24.60;89.60;;;;;;5035920;28;20207;-83
2022/07/24 12:24:11;;;;;;;1.20;0.95;;;24.70;89.20;;;;;;5018640;28;20184;-82
2022/07/24 12:26:58;;;;;;;0.98;0.90;;;24.70;88.60;;;;;;5018795;28;20177;-83
2022/07/24 12:29:25;;;;;;;7.03;1.10;;;24.70;87.60;;;;;;5036444;28;20173;-82
2022/07/24 12:32:16;;;;;;;1.88;1.10;;;24.70;87.90;;;;;;5035915;28;20227;-82
2022/07/24 12:34:43;;;;;;;1.02;0.75;;;24.70;89.80;;;;;;5054298;28;20212;-83
2022/07/24 12:37:17;;;;;;;2.47;0.93;;;24.70;87.90;;;;;;5038136;28;20188;-82
2022/07/24 12:39:50;;;;;;;0.70;0.70;;;24.70;90.20;;;;;;5055310;28;20270;-82
2022/07/24 12:42:17;;;;;;;0.70;0.70;;;24.60;90.80;;;;;;5056338;28;20156;-80
2022/07/24 12:44:45;;;;;;;1.92;0.80;;;24.30;90.80;;;;;;5055546;28;20183;-83
2022/07/24 12:47:11;;;;;;;1.02;0.93;;;24.10;90.70;;;;;;5055942;28;20176;-81